sensor_id;sensor_type;location;lat;lon;timestamp;P1;durP1;ratioP1;P2;durP2;ratioP2
67798;SDS011;54596;43.216;27.904;2024-03-08T00:01:47;36.78;;;22.70;;
67798;SDS011;54596;43.216;27.904;2024-03-08T00:04:13;36.45;;;23.25;;
67798;SDS011;54596;43.216;27.904;2024-03-08T00:06:40;36.53;;;22.35;;
67798;SDS011;54596;43.216;27.904;2024-03-08T00:09:06;34.78;;;22.67;;
67798;SDS011;54596;43.216;27.904;2024-03-08T00:11:33;37.60;;;22.25;;
67798;SDS011;54596;43.216;27.904;2024-03-08T00:14:00;34.90;;;22.02;;
67798;SDS011;54596;43.216;27.904;2024-03-08T00:16:25;35.63;;;21.00;;
67798;SDS011;54596;43.216;27.904;2024-03-08T00:18:51;33.08;;;21.17;;
67798;SDS011;54596;43.216;27.904;2024-03-08T00:21:17;34.08;;;20.33;;
67798;SDS011;54596;43.216;27.904;2024-03-08T00:23:42;34.25;;;20.92;;
67798;SDS011;54596;43.216;27.904;2024-03-08T00:26:08;32.03;;;20.70;;
67798;SDS011;54596;43.216;27.904;2024-03-08T00:28:34;33.17;;;20.80;;
67798;SDS011;54596;43.216;27.904;2024-03-08T00:30:59;32.55;;;20.85;;
67798;SDS011;54596;43.216;27.904;2024-03-08T00:33:25;31.80;;;20.23;;
67798;SDS011;54596;43.216;27.904;2024-03-08T00:35:52;32.15;;;21.02;;
67798;SDS011;54596;43.216;27.904;2024-03-08T00:38:20;34.83;;;20.23;;
67798;SDS011;54596;43.216;27.904;2024-03-08T00:40:46;35.15;;;21.02;;
67798;SDS011;54596;43.216;27.904;2024-03-08T00:43:11;34.17;;;21.27;;
67798;SDS011;54596;43.216;27.904;2024-03-08T00:45:37;35.75;;;21.27;;
67798;SDS011;54596;43.216;27.904;2024-03-08T00:48:03;31.17;;;21.08;;
67798;SDS011;54596;43.216;27.904;2024-03-08T00:50:30;33.13;;;21.23;;
67798;SDS011;54596;43.216;27.904;2024-03-08T00:52:56;32.50;;;21.00;;
67798;SDS011;54596;43.216;27.904;2024-03-08T00:55:21;31.95;;;21.48;;
67798;SDS011;54596;43.216;27.904;2024-03-08T00:57:47;38.13;;;22.35;;
67798;SDS011;54596;43.216;27.904;2024-03-08T01:00:13;37.08;;;21.00;;
67798;SDS011;54596;43.216;27.904;2024-03-08T01:02:39;33.95;;;20.70;;
67798;SDS011;54596;43.216;27.904;2024-03-08T01:05:05;35.22;;;21.17;;
67798;SDS011;54596;43.216;27.904;2024-03-08T01:07:33;35.53;;;20.98;;
67798;SDS011;54596;43.216;27.904;2024-03-08T01:10:00;34.17;;;20.27;;
67798;SDS011;54596;43.216;27.904;2024-03-08T01:12:26;32.28;;;20.55;;
67798;SDS011;54596;43.216;27.904;2024-03-08T01:14:51;34.15;;;20.30;;
67798;SDS011;54596;43.216;27.904;2024-03-08T01:17:17;31.73;;;19.95;;
67798;SDS011;54596;43.216;27.904;2024-03-08T01:19:42;32.20;;;19.92;;
67798;SDS011;54596;43.216;27.904;2024-03-08T01:22:10;30.83;;;19.65;;
67798;SDS011;54596;43.216;27.904;2024-03-08T01:24:36;29.95;;;19.95;;
67798;SDS011;54596;43.216;27.904;2024-03-08T01:27:02;32.05;;;20.23;;
67798;SDS011;54596;43.216;27.904;2024-03-08T01:29:28;29.67;;;19.65;;
67798;SDS011;54596;43.216;27.904;2024-03-08T01:31:55;28.27;;;19.58;;
67798;SDS011;54596;43.216;27.904;2024-03-08T01:34:21;33.40;;;20.40;;
67798;SDS011;54596;43.216;27.904;2024-03-08T01:36:48;30.52;;;20.33;;
67798;SDS011;54596;43.216;27.904;2024-03-08T01:39:13;30.08;;;20.05;;
67798;SDS011;54596;43.216;27.904;2024-03-08T01:41:39;32.75;;;20.17;;
67798;SDS011;54596;43.216;27.904;2024-03-08T01:44:05;33.58;;;20.95;;
67798;SDS011;54596;43.216;27.904;2024-03-08T01:46:32;32.30;;;19.38;;
67798;SDS011;54596;43.216;27.904;2024-03-08T01:48:59;29.15;;;19.90;;
67798;SDS011;54596;43.216;27.904;2024-03-08T01:51:28;31.80;;;19.75;;
67798;SDS011;54596;43.216;27.904;2024-03-08T01:53:56;30.02;;;18.92;;
67798;SDS011;54596;43.216;27.904;2024-03-08T01:56:24;32.45;;;20.10;;
67798;SDS011;54596;43.216;27.904;2024-03-08T01:58:51;29.83;;;19.33;;
67798;SDS011;54596;43.216;27.904;2024-03-08T02:01:17;29.20;;;19.67;;
67798;SDS011;54596;43.216;27.904;2024-03-08T02:03:44;30.13;;;19.65;;
67798;SDS011;54596;43.216;27.904;2024-03-08T02:06:11;29.00;;;19.42;;
67798;SDS011;54596;43.216;27.904;2024-03-08T02:08:39;31.42;;;20.20;;
67798;SDS011;54596;43.216;27.904;2024-03-08T02:11:06;33.75;;;19.63;;
67798;SDS011;54596;43.216;27.904;2024-03-08T02:13:32;36.03;;;21.27;;
67798;SDS011;54596;43.216;27.904;2024-03-08T02:15:59;31.55;;;19.30;;
67798;SDS011;54596;43.216;27.904;2024-03-08T02:18:25;28.65;;;19.27;;
67798;SDS011;54596;43.216;27.904;2024-03-08T02:20:52;29.05;;;18.45;;
67798;SDS011;54596;43.216;27.904;2024-03-08T02:23:19;30.85;;;18.52;;
67798;SDS011;54596;43.216;27.904;2024-03-08T02:25:45;31.58;;;18.75;;
67798;SDS011;54596;43.216;27.904;2024-03-08T02:28:11;29.92;;;19.70;;
67798;SDS011;54596;43.216;27.904;2024-03-08T02:30:38;30.75;;;18.40;;
67798;SDS011;54596;43.216;27.904;2024-03-08T02:33:07;29.27;;;18.42;;
67798;SDS011;54596;43.216;27.904;2024-03-08T02:35:34;30.73;;;19.42;;
67798;SDS011;54596;43.216;27.904;2024-03-08T02:38:00;30.90;;;19.35;;
67798;SDS011;54596;43.216;27.904;2024-03-08T02:40:26;33.33;;;19.02;;
67798;SDS011;54596;43.216;27.904;2024-03-08T02:42:52;26.25;;;18.20;;
67798;SDS011;54596;43.216;27.904;2024-03-08T02:45:17;26.35;;;18.25;;
67798;SDS011;54596;43.216;27.904;2024-03-08T02:47:43;29.88;;;19.02;;
67798;SDS011;54596;43.216;27.904;2024-03-08T02:50:09;30.77;;;17.83;;
67798;SDS011;54596;43.216;27.904;2024-03-08T02:52:34;34.38;;;18.92;;
67798;SDS011;54596;43.216;27.904;2024-03-08T02:55:01;31.15;;;19.50;;
67798;SDS011;54596;43.216;27.904;2024-03-08T02:57:31;29.88;;;18.98;;
67798;SDS011;54596;43.216;27.904;2024-03-08T02:59:57;29.65;;;18.60;;
67798;SDS011;54596;43.216;27.904;2024-03-08T03:02:24;28.42;;;18.95;;
67798;SDS011;54596;43.216;27.904;2024-03-08T03:04:51;30.50;;;18.92;;
67798;SDS011;54596;43.216;27.904;2024-03-08T03:07:17;32.85;;;19.27;;
67798;SDS011;54596;43.216;27.904;2024-03-08T03:09:44;30.65;;;18.38;;
67798;SDS011;54596;43.216;27.904;2024-03-08T03:12:10;29.17;;;18.27;;
67798;SDS011;54596;43.216;27.904;2024-03-08T03:14:36;31.02;;;18.35;;
67798;SDS011;54596;43.216;27.904;2024-03-08T03:17:03;32.28;;;18.73;;
67798;SDS011;54596;43.216;27.904;2024-03-08T03:19:30;29.73;;;17.20;;
67798;SDS011;54596;43.216;27.904;2024-03-08T03:21:55;29.67;;;18.33;;
67798;SDS011;54596;43.216;27.904;2024-03-08T03:24:22;28.45;;;17.40;;
67798;SDS011;54596;43.216;27.904;2024-03-08T03:26:48;30.02;;;18.58;;
67798;SDS011;54596;43.216;27.904;2024-03-08T03:29:14;30.88;;;18.50;;
67798;SDS011;54596;43.216;27.904;2024-03-08T03:31:42;26.90;;;18.17;;
67798;SDS011;54596;43.216;27.904;2024-03-08T03:34:10;29.40;;;18.25;;
67798;SDS011;54596;43.216;27.904;2024-03-08T03:36:37;29.08;;;17.55;;
67798;SDS011;54596;43.216;27.904;2024-03-08T03:39:07;30.77;;;19.00;;
67798;SDS011;54596;43.216;27.904;2024-03-08T03:41:37;29.83;;;18.25;;
67798;SDS011;54596;43.216;27.904;2024-03-08T03:44:04;30.02;;;18.30;;
67798;SDS011;54596;43.216;27.904;2024-03-08T03:46:32;28.50;;;18.65;;
67798;SDS011;54596;43.216;27.904;2024-03-08T03:48:58;28.13;;;18.15;;
67798;SDS011;54596;43.216;27.904;2024-03-08T03:51:24;30.17;;;17.83;;
67798;SDS011;54596;43.216;27.904;2024-03-08T03:53:49;28.05;;;17.55;;
67798;SDS011;54596;43.216;27.904;2024-03-08T03:56:15;29.90;;;18.75;;
67798;SDS011;54596;43.216;27.904;2024-03-08T03:58:41;32.20;;;20.15;;
67798;SDS011;54596;43.216;27.904;2024-03-08T04:01:07;26.83;;;17.92;;
67798;SDS011;54596;43.216;27.904;2024-03-08T04:03:33;29.95;;;19.50;;
67798;SDS011;54596;43.216;27.904;2024-03-08T04:05:58;32.38;;;19.15;;
67798;SDS011;54596;43.216;27.904;2024-03-08T04:08:24;30.73;;;18.27;;
67798;SDS011;54596;43.216;27.904;2024-03-08T04:10:50;28.52;;;18.10;;
67798;SDS011;54596;43.216;27.904;2024-03-08T04:13:16;33.15;;;18.90;;
67798;SDS011;54596;43.216;27.904;2024-03-08T04:15:41;29.02;;;19.02;;
67798;SDS011;54596;43.216;27.904;2024-03-08T04:18:09;27.98;;;18.52;;
67798;SDS011;54596;43.216;27.904;2024-03-08T04:20:35;27.73;;;18.38;;
67798;SDS011;54596;43.216;27.904;2024-03-08T04:23:01;32.70;;;20.40;;
67798;SDS011;54596;43.216;27.904;2024-03-08T04:25:27;29.33;;;18.58;;
67798;SDS011;54596;43.216;27.904;2024-03-08T04:27:53;28.92;;;18.63;;
67798;SDS011;54596;43.216;27.904;2024-03-08T04:30:18;29.48;;;17.73;;
67798;SDS011;54596;43.216;27.904;2024-03-08T04:32:46;31.48;;;19.10;;
67798;SDS011;54596;43.216;27.904;2024-03-08T04:35:12;30.75;;;18.98;;
67798;SDS011;54596;43.216;27.904;2024-03-08T04:37:39;31.58;;;18.55;;
67798;SDS011;54596;43.216;27.904;2024-03-08T04:40:05;27.63;;;18.35;;
67798;SDS011;54596;43.216;27.904;2024-03-08T04:42:30;30.45;;;18.80;;
67798;SDS011;54596;43.216;27.904;2024-03-08T04:44:58;28.38;;;18.35;;
67798;SDS011;54596;43.216;27.904;2024-03-08T04:47:24;33.83;;;18.65;;
67798;SDS011;54596;43.216;27.904;2024-03-08T04:49:49;30.15;;;19.30;;
67798;SDS011;54596;43.216;27.904;2024-03-08T04:52:15;31.05;;;19.30;;
67798;SDS011;54596;43.216;27.904;2024-03-08T04:54:41;28.73;;;19.77;;
67798;SDS011;54596;43.216;27.904;2024-03-08T04:57:11;31.17;;;19.08;;
67798;SDS011;54596;43.216;27.904;2024-03-08T04:59:37;31.42;;;19.95;;
67798;SDS011;54596;43.216;27.904;2024-03-08T05:02:05;29.60;;;19.60;;
67798;SDS011;54596;43.216;27.904;2024-03-08T05:04:32;30.50;;;19.13;;
67798;SDS011;54596;43.216;27.904;2024-03-08T05:06:58;29.35;;;19.45;;
67798;SDS011;54596;43.216;27.904;2024-03-08T05:09:26;33.63;;;20.67;;
67798;SDS011;54596;43.216;27.904;2024-03-08T05:11:56;29.58;;;19.58;;
67798;SDS011;54596;43.216;27.904;2024-03-08T05:14:24;32.20;;;20.00;;
67798;SDS011;54596;43.216;27.904;2024-03-08T05:16:50;34.35;;;19.85;;
67798;SDS011;54596;43.216;27.904;2024-03-08T05:19:16;31.58;;;20.67;;
67798;SDS011;54596;43.216;27.904;2024-03-08T05:21:43;33.75;;;20.23;;
67798;SDS011;54596;43.216;27.904;2024-03-08T05:24:09;32.08;;;21.05;;
67798;SDS011;54596;43.216;27.904;2024-03-08T05:26:35;31.75;;;20.13;;
67798;SDS011;54596;43.216;27.904;2024-03-08T05:29:02;33.90;;;20.73;;
67798;SDS011;54596;43.216;27.904;2024-03-08T05:31:28;33.13;;;20.08;;
67798;SDS011;54596;43.216;27.904;2024-03-08T05:33:56;33.08;;;21.50;;
67798;SDS011;54596;43.216;27.904;2024-03-08T05:36:21;31.30;;;20.83;;
67798;SDS011;54596;43.216;27.904;2024-03-08T05:38:47;30.67;;;21.23;;
67798;SDS011;54596;43.216;27.904;2024-03-08T05:41:15;31.15;;;20.63;;
67798;SDS011;54596;43.216;27.904;2024-03-08T05:43:42;37.35;;;22.10;;
67798;SDS011;54596;43.216;27.904;2024-03-08T05:46:08;31.50;;;20.42;;
67798;SDS011;54596;43.216;27.904;2024-03-08T05:48:36;33.17;;;22.05;;
67798;SDS011;54596;43.216;27.904;2024-03-08T05:51:02;39.40;;;22.60;;
67798;SDS011;54596;43.216;27.904;2024-03-08T05:53:28;33.70;;;22.58;;
67798;SDS011;54596;43.216;27.904;2024-03-08T05:55:57;33.00;;;21.33;;
67798;SDS011;54596;43.216;27.904;2024-03-08T05:58:24;38.15;;;22.25;;
67798;SDS011;54596;43.216;27.904;2024-03-08T06:00:49;34.38;;;22.08;;
67798;SDS011;54596;43.216;27.904;2024-03-08T06:03:15;37.75;;;22.60;;
67798;SDS011;54596;43.216;27.904;2024-03-08T06:05:40;39.72;;;22.23;;
67798;SDS011;54596;43.216;27.904;2024-03-08T06:08:07;34.90;;;21.88;;
67798;SDS011;54596;43.216;27.904;2024-03-08T06:10:33;34.83;;;20.90;;
67798;SDS011;54596;43.216;27.904;2024-03-08T06:12:58;33.42;;;21.17;;
67798;SDS011;54596;43.216;27.904;2024-03-08T06:15:25;35.45;;;20.70;;
67798;SDS011;54596;43.216;27.904;2024-03-08T06:17:50;36.97;;;21.35;;
67798;SDS011;54596;43.216;27.904;2024-03-08T06:20:18;34.10;;;21.17;;
67798;SDS011;54596;43.216;27.904;2024-03-08T06:22:43;30.13;;;20.35;;
67798;SDS011;54596;43.216;27.904;2024-03-08T06:25:10;30.63;;;19.10;;
67798;SDS011;54596;43.216;27.904;2024-03-08T06:27:42;33.05;;;20.23;;
67798;SDS011;54596;43.216;27.904;2024-03-08T06:30:08;31.92;;;20.52;;
67798;SDS011;54596;43.216;27.904;2024-03-08T06:32:35;30.92;;;18.98;;
67798;SDS011;54596;43.216;27.904;2024-03-08T06:35:04;29.67;;;18.52;;
67798;SDS011;54596;43.216;27.904;2024-03-08T06:37:34;29.38;;;18.40;;
67798;SDS011;54596;43.216;27.904;2024-03-08T06:39:59;29.45;;;17.55;;
67798;SDS011;54596;43.216;27.904;2024-03-08T06:42:26;28.88;;;17.20;;
67798;SDS011;54596;43.216;27.904;2024-03-08T06:44:53;26.67;;;17.23;;
67798;SDS011;54596;43.216;27.904;2024-03-08T06:47:21;23.45;;;15.85;;
67798;SDS011;54596;43.216;27.904;2024-03-08T06:49:47;24.45;;;15.82;;
67798;SDS011;54596;43.216;27.904;2024-03-08T06:52:14;25.00;;;15.32;;
67798;SDS011;54596;43.216;27.904;2024-03-08T06:54:40;27.27;;;17.27;;
67798;SDS011;54596;43.216;27.904;2024-03-08T06:57:05;25.77;;;16.45;;
67798;SDS011;54596;43.216;27.904;2024-03-08T06:59:31;23.52;;;14.90;;
67798;SDS011;54596;43.216;27.904;2024-03-08T07:01:57;24.55;;;15.13;;
67798;SDS011;54596;43.216;27.904;2024-03-08T07:04:24;21.40;;;13.82;;
67798;SDS011;54596;43.216;27.904;2024-03-08T07:06:54;22.23;;;14.55;;
67798;SDS011;54596;43.216;27.904;2024-03-08T07:09:19;22.33;;;14.20;;
67798;SDS011;54596;43.216;27.904;2024-03-08T07:11:45;24.83;;;15.70;;
67798;SDS011;54596;43.216;27.904;2024-03-08T07:14:12;22.85;;;14.60;;
67798;SDS011;54596;43.216;27.904;2024-03-08T07:16:40;27.35;;;15.85;;
67798;SDS011;54596;43.216;27.904;2024-03-08T07:19:06;25.92;;;15.93;;
67798;SDS011;54596;43.216;27.904;2024-03-08T07:21:32;26.25;;;15.77;;
67798;SDS011;54596;43.216;27.904;2024-03-08T07:23:57;25.63;;;16.02;;
67798;SDS011;54596;43.216;27.904;2024-03-08T07:26:45;28.17;;;16.63;;
67798;SDS011;54596;43.216;27.904;2024-03-08T07:29:17;26.05;;;16.13;;
67798;SDS011;54596;43.216;27.904;2024-03-08T07:31:42;26.98;;;16.10;;
67798;SDS011;54596;43.216;27.904;2024-03-08T07:34:27;24.92;;;15.88;;
67798;SDS011;54596;43.216;27.904;2024-03-08T07:36:57;26.58;;;16.65;;
67798;SDS011;54596;43.216;27.904;2024-03-08T07:39:23;28.52;;;18.05;;
67798;SDS011;54596;43.216;27.904;2024-03-08T07:41:49;26.98;;;17.10;;
67798;SDS011;54596;43.216;27.904;2024-03-08T07:44:18;28.33;;;16.35;;
67798;SDS011;54596;43.216;27.904;2024-03-08T07:46:43;29.15;;;17.17;;
67798;SDS011;54596;43.216;27.904;2024-03-08T07:49:09;28.00;;;17.60;;
67798;SDS011;54596;43.216;27.904;2024-03-08T07:51:36;28.80;;;16.77;;
67798;SDS011;54596;43.216;27.904;2024-03-08T07:54:03;27.60;;;17.05;;
67798;SDS011;54596;43.216;27.904;2024-03-08T07:56:34;26.67;;;17.65;;
67798;SDS011;54596;43.216;27.904;2024-03-08T07:59:01;30.10;;;17.77;;
67798;SDS011;54596;43.216;27.904;2024-03-08T08:01:29;27.60;;;17.25;;
67798;SDS011;54596;43.216;27.904;2024-03-08T08:03:56;27.98;;;16.55;;
67798;SDS011;54596;43.216;27.904;2024-03-08T08:06:22;28.95;;;17.15;;
67798;SDS011;54596;43.216;27.904;2024-03-08T08:08:47;27.92;;;17.42;;
67798;SDS011;54596;43.216;27.904;2024-03-08T08:11:13;25.50;;;17.25;;
67798;SDS011;54596;43.216;27.904;2024-03-08T08:13:41;27.77;;;16.45;;
67798;SDS011;54596;43.216;27.904;2024-03-08T08:16:08;35.65;;;18.08;;
67798;SDS011;54596;43.216;27.904;2024-03-08T08:18:35;28.35;;;16.85;;
67798;SDS011;54596;43.216;27.904;2024-03-08T08:21:02;27.75;;;16.05;;
67798;SDS011;54596;43.216;27.904;2024-03-08T08:23:28;27.75;;;16.95;;
67798;SDS011;54596;43.216;27.904;2024-03-08T08:25:55;25.83;;;15.85;;
67798;SDS011;54596;43.216;27.904;2024-03-08T08:28:20;26.00;;;16.30;;
67798;SDS011;54596;43.216;27.904;2024-03-08T08:30:46;25.90;;;15.73;;
67798;SDS011;54596;43.216;27.904;2024-03-08T08:33:11;27.60;;;17.13;;
67798;SDS011;54596;43.216;27.904;2024-03-08T08:35:38;25.13;;;15.10;;
67798;SDS011;54596;43.216;27.904;2024-03-08T08:38:06;24.23;;;15.07;;
67798;SDS011;54596;43.216;27.904;2024-03-08T08:40:35;24.97;;;14.67;;
67798;SDS011;54596;43.216;27.904;2024-03-08T08:43:03;25.17;;;15.52;;
67798;SDS011;54596;43.216;27.904;2024-03-08T08:45:30;25.95;;;15.13;;
67798;SDS011;54596;43.216;27.904;2024-03-08T08:47:56;25.95;;;15.90;;
67798;SDS011;54596;43.216;27.904;2024-03-08T08:50:22;23.80;;;15.50;;
67798;SDS011;54596;43.216;27.904;2024-03-08T08:52:48;21.60;;;14.40;;
67798;SDS011;54596;43.216;27.904;2024-03-08T08:55:14;25.88;;;15.60;;
67798;SDS011;54596;43.216;27.904;2024-03-08T08:57:41;26.48;;;15.77;;
67798;SDS011;54596;43.216;27.904;2024-03-08T09:00:07;25.48;;;15.52;;
67798;SDS011;54596;43.216;27.904;2024-03-08T09:02:39;27.13;;;16.50;;
67798;SDS011;54596;43.216;27.904;2024-03-08T09:05:06;23.92;;;14.95;;
67798;SDS011;54596;43.216;27.904;2024-03-08T09:07:33;23.17;;;14.00;;
67798;SDS011;54596;43.216;27.904;2024-03-08T09:09:59;24.08;;;15.57;;
67798;SDS011;54596;43.216;27.904;2024-03-08T09:12:25;21.60;;;13.45;;
67798;SDS011;54596;43.216;27.904;2024-03-08T09:14:51;23.50;;;13.10;;
67798;SDS011;54596;43.216;27.904;2024-03-08T09:17:17;25.05;;;14.32;;
67798;SDS011;54596;43.216;27.904;2024-03-08T09:19:48;22.85;;;14.00;;
67798;SDS011;54596;43.216;27.904;2024-03-08T09:22:15;25.05;;;14.73;;
67798;SDS011;54596;43.216;27.904;2024-03-08T09:24:41;26.92;;;15.02;;
67798;SDS011;54596;43.216;27.904;2024-03-08T09:27:08;26.33;;;15.55;;
67798;SDS011;54596;43.216;27.904;2024-03-08T09:29:35;27.17;;;16.80;;
67798;SDS011;54596;43.216;27.904;2024-03-08T09:32:00;29.95;;;16.27;;
67798;SDS011;54596;43.216;27.904;2024-03-08T09:34:26;29.05;;;16.92;;
67798;SDS011;54596;43.216;27.904;2024-03-08T09:36:52;29.73;;;17.85;;
67798;SDS011;54596;43.216;27.904;2024-03-08T09:39:18;30.60;;;17.13;;
67798;SDS011;54596;43.216;27.904;2024-03-08T09:41:46;29.13;;;17.08;;
67798;SDS011;54596;43.216;27.904;2024-03-08T09:44:15;31.13;;;16.60;;
67798;SDS011;54596;43.216;27.904;2024-03-08T09:46:41;27.65;;;16.45;;
67798;SDS011;54596;43.216;27.904;2024-03-08T09:49:07;28.52;;;17.25;;
67798;SDS011;54596;43.216;27.904;2024-03-08T09:51:34;30.58;;;18.05;;
67798;SDS011;54596;43.216;27.904;2024-03-08T09:54:05;28.73;;;17.03;;
67798;SDS011;54596;43.216;27.904;2024-03-08T09:56:33;27.85;;;17.15;;
67798;SDS011;54596;43.216;27.904;2024-03-08T09:59:00;26.88;;;16.98;;
67798;SDS011;54596;43.216;27.904;2024-03-08T10:01:29;29.08;;;17.63;;
67798;SDS011;54596;43.216;27.904;2024-03-08T10:03:55;29.02;;;16.83;;
67798;SDS011;54596;43.216;27.904;2024-03-08T10:06:23;31.48;;;17.75;;
67798;SDS011;54596;43.216;27.904;2024-03-08T10:08:49;33.13;;;17.85;;
67798;SDS011;54596;43.216;27.904;2024-03-08T10:11:18;29.40;;;17.50;;
67798;SDS011;54596;43.216;27.904;2024-03-08T10:13:44;29.38;;;17.73;;
67798;SDS011;54596;43.216;27.904;2024-03-08T10:16:11;29.55;;;17.25;;
67798;SDS011;54596;43.216;27.904;2024-03-08T10:18:37;27.52;;;16.50;;
67798;SDS011;54596;43.216;27.904;2024-03-08T10:21:09;31.17;;;17.33;;
67798;SDS011;54596;43.216;27.904;2024-03-08T10:23:40;25.60;;;16.80;;
67798;SDS011;54596;43.216;27.904;2024-03-08T10:26:17;33.10;;;17.42;;
67798;SDS011;54596;43.216;27.904;2024-03-08T10:28:46;29.48;;;16.27;;
67798;SDS011;54596;43.216;27.904;2024-03-08T10:31:15;32.35;;;17.17;;
67798;SDS011;54596;43.216;27.904;2024-03-08T10:33:42;30.08;;;17.88;;
67798;SDS011;54596;43.216;27.904;2024-03-08T10:36:08;29.90;;;17.92;;
67798;SDS011;54596;43.216;27.904;2024-03-08T10:38:40;32.35;;;18.52;;
67798;SDS011;54596;43.216;27.904;2024-03-08T10:41:09;28.45;;;16.90;;
67798;SDS011;54596;43.216;27.904;2024-03-08T10:43:42;29.35;;;18.13;;
67798;SDS011;54596;43.216;27.904;2024-03-08T10:48:59;29.92;;;17.25;;
67798;SDS011;54596;43.216;27.904;2024-03-08T10:51:28;27.83;;;18.13;;
67798;SDS011;54596;43.216;27.904;2024-03-08T10:53:54;29.75;;;17.75;;
67798;SDS011;54596;43.216;27.904;2024-03-08T10:56:21;30.88;;;18.40;;
67798;SDS011;54596;43.216;27.904;2024-03-08T10:58:47;33.67;;;18.17;;
67798;SDS011;54596;43.216;27.904;2024-03-08T11:01:14;33.83;;;19.55;;
67798;SDS011;54596;43.216;27.904;2024-03-08T11:06:19;33.70;;;19.17;;
67798;SDS011;54596;43.216;27.904;2024-03-08T11:08:49;32.42;;;18.92;;
67798;SDS011;54596;43.216;27.904;2024-03-08T11:11:27;29.17;;;18.30;;
67798;SDS011;54596;43.216;27.904;2024-03-08T11:13:57;30.38;;;17.88;;
67798;SDS011;54596;43.216;27.904;2024-03-08T11:19:06;34.15;;;19.42;;
67798;SDS011;54596;43.216;27.904;2024-03-08T11:21:56;30.42;;;18.52;;
67798;SDS011;54596;43.216;27.904;2024-03-08T11:24:23;33.67;;;18.67;;
67798;SDS011;54596;43.216;27.904;2024-03-08T11:26:48;28.48;;;18.40;;
67798;SDS011;54596;43.216;27.904;2024-03-08T11:32:07;29.85;;;17.25;;
67798;SDS011;54596;43.216;27.904;2024-03-08T11:34:37;33.67;;;19.98;;
67798;SDS011;54596;43.216;27.904;2024-03-08T11:37:05;34.38;;;19.20;;
67798;SDS011;54596;43.216;27.904;2024-03-08T11:39:37;32.17;;;19.02;;
67798;SDS011;54596;43.216;27.904;2024-03-08T11:42:05;35.00;;;21.80;;
67798;SDS011;54596;43.216;27.904;2024-03-08T11:44:31;36.17;;;21.52;;
67798;SDS011;54596;43.216;27.904;2024-03-08T11:46:57;38.83;;;19.45;;
67798;SDS011;54596;43.216;27.904;2024-03-08T11:49:23;32.72;;;18.73;;
67798;SDS011;54596;43.216;27.904;2024-03-08T11:51:52;36.00;;;18.48;;
67798;SDS011;54596;43.216;27.904;2024-03-08T11:54:18;29.13;;;17.02;;
67798;SDS011;54596;43.216;27.904;2024-03-08T11:56:45;40.90;;;18.40;;
67798;SDS011;54596;43.216;27.904;2024-03-08T11:59:13;40.17;;;19.95;;
67798;SDS011;54596;43.216;27.904;2024-03-08T12:01:39;32.13;;;18.20;;
67798;SDS011;54596;43.216;27.904;2024-03-08T12:04:05;33.17;;;18.38;;
67798;SDS011;54596;43.216;27.904;2024-03-08T12:06:37;32.67;;;17.02;;
67798;SDS011;54596;43.216;27.904;2024-03-08T12:09:10;31.92;;;18.48;;
67798;SDS011;54596;43.216;27.904;2024-03-08T12:11:36;34.40;;;18.02;;
67798;SDS011;54596;43.216;27.904;2024-03-08T12:14:02;32.45;;;17.27;;
67798;SDS011;54596;43.216;27.904;2024-03-08T12:16:28;33.65;;;17.15;;
67798;SDS011;54596;43.216;27.904;2024-03-08T12:18:54;29.95;;;16.58;;
67798;SDS011;54596;43.216;27.904;2024-03-08T12:21:20;34.30;;;17.27;;
67798;SDS011;54596;43.216;27.904;2024-03-08T12:23:51;30.38;;;16.17;;
67798;SDS011;54596;43.216;27.904;2024-03-08T12:26:39;31.30;;;16.42;;
67798;SDS011;54596;43.216;27.904;2024-03-08T12:29:14;31.27;;;16.75;;
67798;SDS011;54596;43.216;27.904;2024-03-08T12:31:46;29.15;;;16.23;;
67798;SDS011;54596;43.216;27.904;2024-03-08T12:34:12;27.95;;;16.58;;
67798;SDS011;54596;43.216;27.904;2024-03-08T12:36:44;26.73;;;16.25;;
67798;SDS011;54596;43.216;27.904;2024-03-08T12:39:13;29.02;;;15.73;;
67798;SDS011;54596;43.216;27.904;2024-03-08T12:41:41;27.95;;;17.05;;
67798;SDS011;54596;43.216;27.904;2024-03-08T12:44:07;33.13;;;16.60;;
67798;SDS011;54596;43.216;27.904;2024-03-08T12:46:36;32.22;;;16.52;;
67798;SDS011;54596;43.216;27.904;2024-03-08T12:49:06;32.17;;;16.38;;
67798;SDS011;54596;43.216;27.904;2024-03-08T12:51:33;30.02;;;16.17;;
67798;SDS011;54596;43.216;27.904;2024-03-08T12:53:58;29.90;;;15.75;;
67798;SDS011;54596;43.216;27.904;2024-03-08T12:56:31;30.83;;;16.60;;
67798;SDS011;54596;43.216;27.904;2024-03-08T12:58:59;32.70;;;15.68;;
67798;SDS011;54596;43.216;27.904;2024-03-08T13:01:25;30.60;;;16.08;;
67798;SDS011;54596;43.216;27.904;2024-03-08T13:03:52;31.38;;;18.02;;
67798;SDS011;54596;43.216;27.904;2024-03-08T13:06:18;34.25;;;17.90;;
67798;SDS011;54596;43.216;27.904;2024-03-08T13:08:49;32.38;;;16.83;;
67798;SDS011;54596;43.216;27.904;2024-03-08T13:11:19;33.35;;;16.85;;
67798;SDS011;54596;43.216;27.904;2024-03-08T13:13:45;31.33;;;15.50;;
67798;SDS011;54596;43.216;27.904;2024-03-08T13:16:11;30.45;;;16.40;;
67798;SDS011;54596;43.216;27.904;2024-03-08T13:18:40;31.55;;;16.52;;
67798;SDS011;54596;43.216;27.904;2024-03-08T13:21:09;28.50;;;16.15;;
67798;SDS011;54596;43.216;27.904;2024-03-08T13:23:40;32.70;;;16.77;;
67798;SDS011;54596;43.216;27.904;2024-03-08T13:26:10;34.58;;;17.35;;
67798;SDS011;54596;43.216;27.904;2024-03-08T13:28:43;39.08;;;18.10;;
67798;SDS011;54596;43.216;27.904;2024-03-08T13:31:10;35.45;;;17.73;;
67798;SDS011;54596;43.216;27.904;2024-03-08T13:33:36;35.88;;;18.67;;
67798;SDS011;54596;43.216;27.904;2024-03-08T13:36:05;37.08;;;18.70;;
67798;SDS011;54596;43.216;27.904;2024-03-08T13:38:32;39.53;;;19.08;;
67798;SDS011;54596;43.216;27.904;2024-03-08T13:40:58;32.33;;;17.35;;
67798;SDS011;54596;43.216;27.904;2024-03-08T13:43:24;32.88;;;17.95;;
67798;SDS011;54596;43.216;27.904;2024-03-08T13:45:50;30.30;;;17.73;;
67798;SDS011;54596;43.216;27.904;2024-03-08T13:48:15;30.80;;;16.50;;
67798;SDS011;54596;43.216;27.904;2024-03-08T13:50:41;31.95;;;17.80;;
67798;SDS011;54596;43.216;27.904;2024-03-08T13:53:07;39.35;;;17.75;;
67798;SDS011;54596;43.216;27.904;2024-03-08T13:55:35;37.03;;;18.60;;
67798;SDS011;54596;43.216;27.904;2024-03-08T13:58:01;32.05;;;17.40;;
67798;SDS011;54596;43.216;27.904;2024-03-08T14:00:27;32.67;;;17.25;;
67798;SDS011;54596;43.216;27.904;2024-03-08T14:02:58;34.17;;;17.10;;
67798;SDS011;54596;43.216;27.904;2024-03-08T14:05:24;32.83;;;18.20;;
67798;SDS011;54596;43.216;27.904;2024-03-08T14:07:49;32.85;;;16.52;;
67798;SDS011;54596;43.216;27.904;2024-03-08T14:10:15;37.80;;;17.17;;
67798;SDS011;54596;43.216;27.904;2024-03-08T14:12:42;29.38;;;16.17;;
67798;SDS011;54596;43.216;27.904;2024-03-08T14:15:09;34.50;;;17.33;;
67798;SDS011;54596;43.216;27.904;2024-03-08T14:17:36;30.52;;;16.10;;
67798;SDS011;54596;43.216;27.904;2024-03-08T14:20:02;33.25;;;18.08;;